VOE6UA LEAS-LEAL
Flight info
| Callsign | VOE6UA |
|---|---|
| Flight time | 1h 32m |
| Altitude | 34000 |
| Route | KUVAN Y27 LARVO DCT ZMR DCT PDT/N0436F340 M871 MABUX |
| Aircraft | A320/M-SDE3FGHIRWY/LB1 |
Departure
| Time | 2026-05-05 13:28 |
|---|---|
| Airport | Asturias Airport (LEAS) |
Arrival
| Time | 2026-05-05 15:00 |
|---|---|
| Airport | Alicante-Elche Miguel Hernández Airport (LEAL) |
| Time | Latitude | Longitude | Altitude | Speed | Heading |
|---|---|---|---|---|---|
| 2026-05-05 13:08 | 43.56028 | -6.03342 | 428 ft | 0 kts | 197° |
| 2026-05-05 13:18 | 43.56028 | -6.03341 | 428 ft | 0 kts | 197° |
| 2026-05-05 13:18 | 43.56038 | -6.03337 | 428 ft | 0 kts | 198° |
| 2026-05-05 13:18 | 43.56054 | -6.03334 | 428 ft | 2 kts | 173° |
| 2026-05-05 13:19 | 43.56070 | -6.03340 | 428 ft | 2 kts | 151° |
| 2026-05-05 13:19 | 43.56082 | -6.03353 | 428 ft | 2 kts | 130° |
| 2026-05-05 13:19 | 43.56089 | -6.03369 | 428 ft | 0 kts | 111° |
| 2026-05-05 13:19 | 43.56092 | -6.03378 | 428 ft | 0 kts | 108° |
| 2026-05-05 13:22 | 43.56088 | -6.03362 | 428 ft | 4 kts | 108° |
| 2026-05-05 13:22 | 43.56069 | -6.03285 | 428 ft | 9 kts | 96° |
| 2026-05-05 13:23 | 43.56105 | -6.03221 | 427 ft | 6 kts | 30° |
| 2026-05-05 13:23 | 43.56113 | -6.03143 | 427 ft | 10 kts | 104° |
| 2026-05-05 13:23 | 43.56085 | -6.03024 | 426 ft | 15 kts | 108° |
| 2026-05-05 13:23 | 43.56043 | -6.02844 | 424 ft | 21 kts | 108° |
| 2026-05-05 13:24 | 43.55989 | -6.02615 | 420 ft | 26 kts | 108° |
| 2026-05-05 13:24 | 43.55946 | -6.02420 | 414 ft | 13 kts | 99° |
| 2026-05-05 13:24 | 43.55967 | -6.02297 | 409 ft | 4 kts | 64° |
| 2026-05-05 13:24 | 43.55969 | -6.02292 | 409 ft | 0 kts | 64° |
| 2026-05-05 13:25 | 43.55970 | -6.02290 | 409 ft | 2 kts | 64° |
| 2026-05-05 13:25 | 43.55990 | -6.02237 | 407 ft | 9 kts | 54° |
| 2026-05-05 13:25 | 43.56039 | -6.02191 | 406 ft | 5 kts | 13° |
| 2026-05-05 13:25 | 43.56059 | -6.02208 | 407 ft | 1 kts | 293° |
| 2026-05-05 13:26 | 43.56062 | -6.02217 | 407 ft | 0 kts | 291° |
| 2026-05-05 13:27 | 43.56086 | -6.02306 | 410 ft | 40 kts | 288° |
| 2026-05-05 13:27 | 43.56260 | -6.03050 | 425 ft | 120 kts | 288° |
| 2026-05-05 13:27 | 43.56583 | -6.04471 | 590 ft | 172 kts | 285° |
| 2026-05-05 13:28 | 43.56915 | -6.06075 | 1496 ft | 171 kts | 289° |
| 2026-05-05 13:28 | 43.57299 | -6.07650 | 2514 ft | 166 kts | 293° |
| 2026-05-05 13:28 | 43.57760 | -6.09287 | 3095 ft | 179 kts | 292° |
| 2026-05-05 13:28 | 43.58225 | -6.11109 | 3612 ft | 195 kts | 289° |
| 2026-05-05 13:29 | 43.58696 | -6.13136 | 4049 ft | 218 kts | 289° |
| 2026-05-05 13:29 | 43.59117 | -6.15271 | 4821 ft | 226 kts | 276° |
| 2026-05-05 13:29 | 43.58768 | -6.17390 | 5632 ft | 232 kts | 239° |
| 2026-05-05 13:29 | 43.57585 | -6.18877 | 6419 ft | 239 kts | 206° |
| 2026-05-05 13:30 | 43.55948 | -6.19622 | 7228 ft | 243 kts | 198° |
| 2026-05-05 13:30 | 43.54288 | -6.20300 | 8005 ft | 247 kts | 198° |
| 2026-05-05 13:30 | 43.52576 | -6.21027 | 8816 ft | 249 kts | 199° |
| 2026-05-05 13:30 | 43.50841 | -6.21784 | 9621 ft | 252 kts | 199° |
| 2026-05-05 13:31 | 43.49146 | -6.22534 | 10384 ft | 255 kts | 199° |
| 2026-05-05 13:31 | 43.47426 | -6.23266 | 11130 ft | 258 kts | 196° |
| 2026-05-05 13:31 | 43.45632 | -6.23805 | 11785 ft | 265 kts | 192° |
| 2026-05-05 13:31 | 43.43680 | -6.24262 | 12191 ft | 283 kts | 191° |
| 2026-05-05 13:32 | 43.41662 | -6.24717 | 12546 ft | 301 kts | 191° |
| 2026-05-05 13:32 | 43.39463 | -6.25213 | 12891 ft | 319 kts | 191° |
| 2026-05-05 13:32 | 43.37163 | -6.25732 | 13243 ft | 335 kts | 191° |
| 2026-05-05 13:32 | 43.34752 | -6.26279 | 13858 ft | 341 kts | 191° |
| 2026-05-05 13:33 | 43.32394 | -6.26815 | 14561 ft | 344 kts | 191° |
| 2026-05-05 13:33 | 43.30009 | -6.27357 | 15246 ft | 347 kts | 191° |
| 2026-05-05 13:33 | 43.27570 | -6.27912 | 15911 ft | 350 kts | 191° |
| 2026-05-05 13:33 | 43.25098 | -6.28473 | 16533 ft | 354 kts | 191° |
| 2026-05-05 13:34 | 43.22653 | -6.29031 | 17160 ft | 357 kts | 191° |
| 2026-05-05 13:34 | 43.20154 | -6.29600 | 17781 ft | 360 kts | 191° |
| 2026-05-05 13:34 | 43.17677 | -6.30161 | 18372 ft | 363 kts | 191° |
| 2026-05-05 13:34 | 43.15190 | -6.30725 | 18965 ft | 366 kts | 192° |
| 2026-05-05 13:35 | 43.12646 | -6.31190 | 19524 ft | 370 kts | 185° |
| 2026-05-05 13:35 | 43.10037 | -6.31016 | 20090 ft | 376 kts | 173° |
| 2026-05-05 13:35 | 43.07487 | -6.30161 | 20640 ft | 380 kts | 164° |
| 2026-05-05 13:35 | 43.04950 | -6.29030 | 21183 ft | 383 kts | 163° |
| 2026-05-05 13:36 | 43.02430 | -6.27866 | 21688 ft | 386 kts | 163° |
| 2026-05-05 13:36 | 42.99849 | -6.26685 | 22187 ft | 390 kts | 163° |
| 2026-05-05 13:36 | 42.97288 | -6.25527 | 22686 ft | 392 kts | 163° |
| 2026-05-05 13:36 | 42.94662 | -6.24352 | 23180 ft | 395 kts | 163° |
| 2026-05-05 13:37 | 42.91998 | -6.23167 | 23664 ft | 398 kts | 163° |
| 2026-05-05 13:37 | 42.89281 | -6.21961 | 24141 ft | 402 kts | 163° |
| 2026-05-05 13:37 | 42.86583 | -6.20765 | 24538 ft | 405 kts | 164° |
| 2026-05-05 13:37 | 42.83871 | -6.19565 | 24910 ft | 409 kts | 164° |
| 2026-05-05 13:38 | 42.81162 | -6.18368 | 25255 ft | 412 kts | 164° |
| 2026-05-05 13:38 | 42.78325 | -6.17115 | 25625 ft | 416 kts | 164° |
| 2026-05-05 13:38 | 42.75558 | -6.15898 | 25962 ft | 419 kts | 165° |
| 2026-05-05 13:38 | 42.72764 | -6.14684 | 26284 ft | 421 kts | 165° |
| 2026-05-05 13:39 | 42.69965 | -6.13475 | 26613 ft | 424 kts | 165° |
| 2026-05-05 13:39 | 42.67119 | -6.12248 | 26931 ft | 427 kts | 165° |
| 2026-05-05 13:39 | 42.64296 | -6.11031 | 27234 ft | 430 kts | 165° |
| 2026-05-05 13:39 | 42.61443 | -6.09803 | 27534 ft | 433 kts | 165° |
| 2026-05-05 13:40 | 42.58559 | -6.08563 | 27831 ft | 435 kts | 165° |
| 2026-05-05 13:40 | 42.55676 | -6.07323 | 28117 ft | 438 kts | 165° |
| 2026-05-05 13:40 | 42.52771 | -6.06077 | 28404 ft | 440 kts | 165° |
| 2026-05-05 13:40 | 42.49840 | -6.04818 | 28681 ft | 443 kts | 165° |
| 2026-05-05 13:41 | 42.46886 | -6.03551 | 28947 ft | 445 kts | 166° |
| 2026-05-05 13:41 | 42.43895 | -6.02269 | 29202 ft | 448 kts | 166° |
| 2026-05-05 13:41 | 42.40907 | -6.00990 | 29469 ft | 450 kts | 166° |
| 2026-05-05 13:41 | 42.37928 | -5.99715 | 29724 ft | 452 kts | 166° |
| 2026-05-05 13:42 | 42.34878 | -5.98413 | 29972 ft | 455 kts | 166° |
| 2026-05-05 13:42 | 42.31882 | -5.97133 | 30196 ft | 457 kts | 166° |
| 2026-05-05 13:42 | 42.28835 | -5.95836 | 30443 ft | 460 kts | 166° |
| 2026-05-05 13:42 | 42.25764 | -5.94528 | 30704 ft | 462 kts | 166° |
| 2026-05-05 13:43 | 42.22680 | -5.93216 | 30959 ft | 463 kts | 166° |
| 2026-05-05 13:43 | 42.19597 | -5.91906 | 31204 ft | 464 kts | 166° |
| 2026-05-05 13:43 | 42.16507 | -5.90594 | 31447 ft | 466 kts | 166° |
| 2026-05-05 13:43 | 42.13393 | -5.89271 | 31655 ft | 468 kts | 166° |
| 2026-05-05 13:44 | 42.10307 | -5.87965 | 31864 ft | 469 kts | 166° |
| 2026-05-05 13:44 | 42.07171 | -5.86639 | 32089 ft | 471 kts | 166° |
| 2026-05-05 13:44 | 42.04037 | -5.85315 | 32311 ft | 472 kts | 166° |
| 2026-05-05 13:44 | 42.00887 | -5.83985 | 32519 ft | 473 kts | 166° |
| 2026-05-05 13:45 | 41.97739 | -5.82655 | 32726 ft | 474 kts | 167° |
| 2026-05-05 13:45 | 41.94574 | -5.81321 | 32925 ft | 475 kts | 167° |
| 2026-05-05 13:45 | 41.88235 | -5.78653 | 32982 ft | 476 kts | 167° |
| 2026-05-05 13:46 | 41.81875 | -5.75983 | 32980 ft | 476 kts | 167° |
| 2026-05-05 13:46 | 41.75524 | -5.73321 | 32988 ft | 479 kts | 167° |
| 2026-05-05 13:47 | 41.69058 | -5.70622 | 32990 ft | 490 kts | 167° |
| 2026-05-05 13:47 | 41.62479 | -5.67870 | 32992 ft | 494 kts | 166° |
| 2026-05-05 13:48 | 41.56149 | -5.64058 | 32985 ft | 502 kts | 153° |
| 2026-05-05 13:48 | 41.50546 | -5.58389 | 32982 ft | 509 kts | 138° |
| 2026-05-05 13:49 | 41.45982 | -5.51169 | 32981 ft | 513 kts | 127° |
| 2026-05-05 13:49 | 41.41850 | -5.43390 | 32985 ft | 513 kts | 127° |
| 2026-05-05 13:50 | 41.37705 | -5.35614 | 32980 ft | 513 kts | 127° |
| 2026-05-05 13:50 | 41.33545 | -5.27905 | 32975 ft | 512 kts | 128° |
| 2026-05-05 13:51 | 41.29374 | -5.20228 | 32985 ft | 511 kts | 128° |
| 2026-05-05 13:51 | 41.25169 | -5.12516 | 32983 ft | 511 kts | 128° |
| 2026-05-05 13:52 | 41.20986 | -5.04864 | 32984 ft | 510 kts | 128° |
| 2026-05-05 13:52 | 41.16833 | -4.97288 | 32988 ft | 510 kts | 128° |
| 2026-05-05 13:53 | 41.12627 | -4.89631 | 32991 ft | 510 kts | 128° |
| 2026-05-05 13:53 | 41.08440 | -4.82025 | 32988 ft | 510 kts | 129° |
| 2026-05-05 13:54 | 41.04252 | -4.74434 | 32992 ft | 509 kts | 129° |
| 2026-05-05 13:54 | 41.00065 | -4.66871 | 32983 ft | 510 kts | 129° |
| 2026-05-05 13:55 | 40.95858 | -4.59289 | 32988 ft | 510 kts | 129° |
| 2026-05-05 13:55 | 40.91664 | -4.51746 | 32999 ft | 510 kts | 129° |
| 2026-05-05 13:56 | 40.87431 | -4.44154 | 32994 ft | 511 kts | 129° |
| 2026-05-05 13:56 | 40.83184 | -4.36556 | 32992 ft | 511 kts | 129° |
| 2026-05-05 13:57 | 40.78947 | -4.28989 | 32993 ft | 510 kts | 130° |
| 2026-05-05 13:57 | 40.74735 | -4.21490 | 32989 ft | 511 kts | 130° |
| 2026-05-05 13:58 | 40.70465 | -4.13905 | 33022 ft | 513 kts | 131° |
| 2026-05-05 13:58 | 40.68322 | -4.10105 | 33176 ft | 513 kts | 131° |
| 2026-05-05 13:58 | 40.66206 | -4.06357 | 33408 ft | 511 kts | 131° |
| 2026-05-05 13:59 | 40.61956 | -3.98846 | 33867 ft | 509 kts | 131° |
| 2026-05-05 13:59 | 40.59825 | -3.95087 | 33997 ft | 509 kts | 131° |
| 2026-05-05 14:00 | 40.53458 | -3.83880 | 34011 ft | 510 kts | 131° |
| 2026-05-05 14:00 | 40.49184 | -3.76380 | 33993 ft | 509 kts | 131° |
| 2026-05-05 14:01 | 40.44945 | -3.68951 | 33992 ft | 509 kts | 132° |
| 2026-05-05 14:01 | 40.40657 | -3.61467 | 33998 ft | 511 kts | 132° |
| 2026-05-05 14:02 | 40.36372 | -3.54002 | 33993 ft | 511 kts | 132° |
| 2026-05-05 14:02 | 40.32099 | -3.46572 | 33990 ft | 511 kts | 132° |
| 2026-05-05 14:03 | 40.28048 | -3.38859 | 33981 ft | 515 kts | 126° |
| 2026-05-05 14:03 | 40.24736 | -3.30483 | 33986 ft | 521 kts | 118° |
| 2026-05-05 14:04 | 40.22261 | -3.21488 | 33979 ft | 526 kts | 110° |
| 2026-05-05 14:04 | 40.20253 | -3.12241 | 33971 ft | 527 kts | 109° |
| 2026-05-05 14:05 | 40.18257 | -3.03034 | 33960 ft | 526 kts | 110° |
| 2026-05-05 14:05 | 40.16222 | -2.93842 | 33968 ft | 527 kts | 110° |
| 2026-05-05 14:06 | 40.14170 | -2.84662 | 33974 ft | 528 kts | 110° |
| 2026-05-05 14:06 | 40.12112 | -2.75484 | 33978 ft | 528 kts | 110° |
| 2026-05-05 14:07 | 40.10046 | -2.66303 | 33984 ft | 528 kts | 110° |
| 2026-05-05 14:07 | 40.07970 | -2.57130 | 33989 ft | 529 kts | 111° |
| 2026-05-05 14:08 | 40.05871 | -2.47890 | 33988 ft | 529 kts | 111° |
| 2026-05-05 14:08 | 40.03780 | -2.38734 | 33993 ft | 531 kts | 111° |
| 2026-05-05 14:09 | 40.01662 | -2.29481 | 33988 ft | 529 kts | 111° |
| 2026-05-05 14:09 | 39.99545 | -2.20280 | 33982 ft | 529 kts | 112° |
| 2026-05-05 14:10 | 39.97426 | -2.11106 | 33980 ft | 528 kts | 112° |
| 2026-05-05 14:10 | 39.95305 | -2.01968 | 33983 ft | 528 kts | 112° |
| 2026-05-05 14:11 | 39.93133 | -1.92661 | 33978 ft | 528 kts | 112° |
| 2026-05-05 14:11 | 39.90966 | -1.83400 | 33975 ft | 528 kts | 112° |
| 2026-05-05 14:12 | 39.88833 | -1.74310 | 33971 ft | 527 kts | 112° |
| 2026-05-05 14:12 | 39.86660 | -1.65104 | 33966 ft | 526 kts | 112° |
| 2026-05-05 14:13 | 39.84506 | -1.56015 | 33966 ft | 527 kts | 112° |
| 2026-05-05 14:13 | 39.82334 | -1.46891 | 33969 ft | 526 kts | 112° |
| 2026-05-05 14:14 | 39.80055 | -1.37873 | 33962 ft | 519 kts | 120° |
| 2026-05-05 14:14 | 39.78419 | -1.33813 | 33963 ft | 508 kts | 130° |
| 2026-05-05 14:14 | 39.76291 | -1.30130 | 33968 ft | 495 kts | 141° |
| 2026-05-05 14:15 | 39.73860 | -1.27071 | 33968 ft | 483 kts | 150° |
| 2026-05-05 14:15 | 39.71168 | -1.24569 | 33969 ft | 465 kts | 159° |
| 2026-05-05 14:15 | 39.68322 | -1.22641 | 33974 ft | 451 kts | 166° |
| 2026-05-05 14:15 | 39.65453 | -1.20999 | 33972 ft | 450 kts | 167° |
| 2026-05-05 14:16 | 39.59673 | -1.17724 | 33932 ft | 447 kts | 166° |
| 2026-05-05 14:16 | 39.56878 | -1.16094 | 33546 ft | 443 kts | 166° |
| 2026-05-05 14:16 | 39.54058 | -1.14565 | 32873 ft | 438 kts | 169° |
| 2026-05-05 14:17 | 39.51189 | -1.13217 | 32216 ft | 434 kts | 171° |
| 2026-05-05 14:17 | 39.48351 | -1.11909 | 31666 ft | 429 kts | 171° |
| 2026-05-05 14:17 | 39.45542 | -1.10614 | 31138 ft | 425 kts | 171° |
| 2026-05-05 14:17 | 39.42770 | -1.09341 | 30557 ft | 422 kts | 171° |
| 2026-05-05 14:18 | 39.39996 | -1.08066 | 30026 ft | 418 kts | 171° |
| 2026-05-05 14:18 | 39.37248 | -1.06807 | 29463 ft | 414 kts | 171° |
| 2026-05-05 14:18 | 39.34549 | -1.05572 | 28883 ft | 412 kts | 171° |
| 2026-05-05 14:18 | 39.31844 | -1.04334 | 28325 ft | 408 kts | 171° |
| 2026-05-05 14:19 | 39.29180 | -1.03117 | 27782 ft | 405 kts | 170° |
| 2026-05-05 14:19 | 39.26537 | -1.01907 | 27225 ft | 402 kts | 171° |
| 2026-05-05 14:19 | 39.23915 | -1.00710 | 26657 ft | 399 kts | 170° |
| 2026-05-05 14:19 | 39.21277 | -0.99507 | 26103 ft | 395 kts | 170° |
| 2026-05-05 14:20 | 39.18697 | -0.98328 | 25555 ft | 393 kts | 170° |
| 2026-05-05 14:20 | 39.16121 | -0.97155 | 25000 ft | 390 kts | 169° |
| 2026-05-05 14:20 | 39.13565 | -0.95991 | 24443 ft | 387 kts | 169° |
| 2026-05-05 14:20 | 39.11046 | -0.94846 | 23897 ft | 384 kts | 169° |
| 2026-05-05 14:21 | 39.08539 | -0.93702 | 23375 ft | 381 kts | 169° |
| 2026-05-05 14:21 | 39.06049 | -0.92569 | 22857 ft | 378 kts | 169° |
| 2026-05-05 14:21 | 39.03546 | -0.91432 | 22325 ft | 376 kts | 169° |
| 2026-05-05 14:21 | 39.01088 | -0.90318 | 21798 ft | 373 kts | 169° |
| 2026-05-05 14:22 | 38.98628 | -0.89358 | 21274 ft | 367 kts | 174° |
| 2026-05-05 14:22 | 38.96142 | -0.88663 | 20771 ft | 360 kts | 178° |
| 2026-05-05 14:22 | 38.93681 | -0.88208 | 20268 ft | 355 kts | 180° |
| 2026-05-05 14:22 | 38.91238 | -0.87801 | 19784 ft | 352 kts | 181° |
| 2026-05-05 14:23 | 38.88797 | -0.87400 | 19303 ft | 350 kts | 181° |
| 2026-05-05 14:23 | 38.86354 | -0.86999 | 18820 ft | 348 kts | 180° |
| 2026-05-05 14:23 | 38.83965 | -0.86603 | 18361 ft | 345 kts | 180° |
| 2026-05-05 14:23 | 38.81605 | -0.86214 | 17920 ft | 343 kts | 180° |
| 2026-05-05 14:24 | 38.79217 | -0.85818 | 17489 ft | 340 kts | 180° |
| 2026-05-05 14:24 | 38.76878 | -0.85431 | 17039 ft | 338 kts | 180° |
| 2026-05-05 14:24 | 38.74542 | -0.85046 | 16560 ft | 337 kts | 179° |
| 2026-05-05 14:24 | 38.72241 | -0.84667 | 16116 ft | 335 kts | 179° |
| 2026-05-05 14:25 | 38.69899 | -0.84279 | 15684 ft | 333 kts | 179° |
| 2026-05-05 14:25 | 38.67624 | -0.83901 | 15251 ft | 331 kts | 179° |
| 2026-05-05 14:25 | 38.65370 | -0.83527 | 15025 ft | 322 kts | 179° |
| 2026-05-05 14:25 | 38.63171 | -0.83158 | 14844 ft | 312 kts | 179° |
| 2026-05-05 14:26 | 38.61017 | -0.82799 | 14663 ft | 303 kts | 179° |
| 2026-05-05 14:26 | 38.58964 | -0.82561 | 14484 ft | 289 kts | 190° |
| 2026-05-05 14:26 | 38.57165 | -0.83323 | 14282 ft | 262 kts | 222° |
| 2026-05-05 14:26 | 38.56130 | -0.85079 | 13967 ft | 243 kts | 253° |
| 2026-05-05 14:27 | 38.55938 | -0.87207 | 13306 ft | 248 kts | 274° |
| 2026-05-05 14:27 | 38.56437 | -0.89335 | 12597 ft | 256 kts | 295° |
| 2026-05-05 14:27 | 38.57604 | -0.91073 | 11951 ft | 265 kts | 320° |
| 2026-05-05 14:27 | 38.59314 | -0.91977 | 11319 ft | 274 kts | 350° |
| 2026-05-05 14:28 | 38.61206 | -0.91627 | 10707 ft | 282 kts | 23° |
| 2026-05-05 14:28 | 38.62677 | -0.90021 | 10137 ft | 285 kts | 57° |
| 2026-05-05 14:28 | 38.63235 | -0.87651 | 9587 ft | 282 kts | 92° |
| 2026-05-05 14:28 | 38.62716 | -0.85302 | 9016 ft | 274 kts | 126° |
| 2026-05-05 14:29 | 38.61366 | -0.83726 | 8445 ft | 264 kts | 158° |
| 2026-05-05 14:29 | 38.59623 | -0.83274 | 8101 ft | 251 kts | 188° |
| 2026-05-05 14:29 | 38.57975 | -0.83766 | 7894 ft | 240 kts | 198° |
| 2026-05-05 14:29 | 38.56303 | -0.83917 | 7525 ft | 247 kts | 167° |
| 2026-05-05 14:30 | 38.54794 | -0.82820 | 7208 ft | 251 kts | 143° |
| 2026-05-05 14:30 | 38.53384 | -0.81586 | 6909 ft | 246 kts | 162° |
| 2026-05-05 14:30 | 38.51727 | -0.81319 | 6590 ft | 238 kts | 193° |
| 2026-05-05 14:30 | 38.50266 | -0.82178 | 6340 ft | 229 kts | 224° |
| 2026-05-05 14:31 | 38.49346 | -0.83785 | 6150 ft | 223 kts | 242° |
| 2026-05-05 14:31 | 38.48657 | -0.85558 | 5871 ft | 222 kts | 243° |
| 2026-05-05 14:31 | 38.47948 | -0.87306 | 5591 ft | 221 kts | 240° |
| 2026-05-05 14:31 | 38.47158 | -0.88962 | 5315 ft | 220 kts | 234° |
| 2026-05-05 14:32 | 38.46202 | -0.90485 | 5032 ft | 219 kts | 227° |
| 2026-05-05 14:32 | 38.45104 | -0.91849 | 4728 ft | 219 kts | 220° |
| 2026-05-05 14:32 | 38.43922 | -0.93049 | 4429 ft | 219 kts | 215° |
| 2026-05-05 14:32 | 38.42655 | -0.94118 | 4235 ft | 215 kts | 211° |
| 2026-05-05 14:33 | 38.41342 | -0.95069 | 4224 ft | 218 kts | 207° |
| 2026-05-05 14:33 | 38.39972 | -0.95926 | 4214 ft | 218 kts | 204° |
| 2026-05-05 14:33 | 38.38572 | -0.96670 | 4209 ft | 218 kts | 198° |
| 2026-05-05 14:33 | 38.37069 | -0.96768 | 4187 ft | 220 kts | 161° |
| 2026-05-05 14:34 | 38.35805 | -0.95686 | 4205 ft | 220 kts | 139° |
| 2026-05-05 14:34 | 38.34759 | -0.94321 | 4184 ft | 207 kts | 130° |
| 2026-05-05 14:34 | 38.33958 | -0.92820 | 4190 ft | 204 kts | 123° |
| 2026-05-05 14:34 | 38.33311 | -0.91200 | 4193 ft | 203 kts | 114° |
| 2026-05-05 14:35 | 38.32914 | -0.89576 | 4239 ft | 186 kts | 105° |
| 2026-05-05 14:35 | 38.32695 | -0.88037 | 4174 ft | 162 kts | 102° |
| 2026-05-05 14:35 | 38.32536 | -0.86675 | 4163 ft | 152 kts | 101° |
| 2026-05-05 14:35 | 38.32374 | -0.85351 | 4173 ft | 151 kts | 102° |
| 2026-05-05 14:36 | 38.32204 | -0.84038 | 4110 ft | 151 kts | 102° |
| 2026-05-05 14:36 | 38.32026 | -0.82718 | 3920 ft | 151 kts | 103° |
| 2026-05-05 14:36 | 38.31839 | -0.81383 | 3718 ft | 152 kts | 103° |
| 2026-05-05 14:36 | 38.31650 | -0.80059 | 3521 ft | 153 kts | 103° |
| 2026-05-05 14:37 | 38.31459 | -0.78719 | 3326 ft | 152 kts | 103° |
| 2026-05-05 14:37 | 38.31270 | -0.77413 | 3130 ft | 151 kts | 103° |
| 2026-05-05 14:37 | 38.31082 | -0.76107 | 2939 ft | 150 kts | 103° |
| 2026-05-05 14:37 | 38.30896 | -0.74804 | 2743 ft | 148 kts | 103° |
| 2026-05-05 14:38 | 38.30712 | -0.73521 | 2548 ft | 148 kts | 103° |
| 2026-05-05 14:38 | 38.30531 | -0.72249 | 2364 ft | 147 kts | 103° |
| 2026-05-05 14:38 | 38.30349 | -0.70969 | 2173 ft | 146 kts | 103° |
| 2026-05-05 14:38 | 38.30167 | -0.69683 | 1981 ft | 146 kts | 103° |
| 2026-05-05 14:39 | 38.29989 | -0.68427 | 1800 ft | 146 kts | 103° |
| 2026-05-05 14:39 | 38.29811 | -0.67165 | 1614 ft | 144 kts | 103° |
| 2026-05-05 14:39 | 38.29633 | -0.65898 | 1422 ft | 144 kts | 104° |
| 2026-05-05 14:39 | 38.29456 | -0.64643 | 1241 ft | 144 kts | 103° |
| 2026-05-05 14:40 | 38.29279 | -0.63378 | 1045 ft | 144 kts | 104° |
| 2026-05-05 14:40 | 38.29102 | -0.62115 | 878 ft | 144 kts | 104° |
| 2026-05-05 14:40 | 38.28920 | -0.60862 | 738 ft | 143 kts | 102° |
| 2026-05-05 14:40 | 38.28746 | -0.59592 | 462 ft | 144 kts | 104° |
| 2026-05-05 14:41 | 38.28561 | -0.58354 | 337 ft | 140 kts | 103° |
| 2026-05-05 14:41 | 38.28398 | -0.57102 | 152 ft | 141 kts | 103° |
| 2026-05-05 14:41 | 38.28238 | -0.55932 | 159 ft | 141 kts | 103° |
| 2026-05-05 14:41 | 38.28040 | -0.54573 | 583 ft | 167 kts | 103° |
| 2026-05-05 14:42 | 38.27837 | -0.53077 | 1324 ft | 176 kts | 103° |
| 2026-05-05 14:42 | 38.27626 | -0.51550 | 2191 ft | 179 kts | 101° |
| 2026-05-05 14:42 | 38.27370 | -0.49988 | 2789 ft | 188 kts | 111° |
| 2026-05-05 14:42 | 38.26594 | -0.48617 | 3290 ft | 200 kts | 146° |
| 2026-05-05 14:43 | 38.25278 | -0.47763 | 3735 ft | 220 kts | 157° |
| 2026-05-05 14:43 | 38.23882 | -0.46972 | 4106 ft | 225 kts | 159° |
| 2026-05-05 14:43 | 38.22345 | -0.46590 | 4168 ft | 223 kts | 188° |
| 2026-05-05 14:43 | 38.20886 | -0.47192 | 4183 ft | 222 kts | 206° |
| 2026-05-05 14:44 | 38.19511 | -0.48129 | 4185 ft | 229 kts | 210° |
| 2026-05-05 14:44 | 38.18118 | -0.49166 | 4179 ft | 232 kts | 210° |
| 2026-05-05 14:44 | 38.16759 | -0.50286 | 4064 ft | 232 kts | 222° |
| 2026-05-05 14:44 | 38.15892 | -0.51982 | 4008 ft | 233 kts | 251° |
| 2026-05-05 14:45 | 38.15459 | -0.53994 | 4000 ft | 233 kts | 253° |
| 2026-05-05 14:45 | 38.15124 | -0.55978 | 3986 ft | 233 kts | 259° |
| 2026-05-05 14:45 | 38.14885 | -0.58033 | 3977 ft | 233 kts | 261° |
| 2026-05-05 14:45 | 38.14671 | -0.60070 | 3985 ft | 235 kts | 261° |
| 2026-05-05 14:46 | 38.14457 | -0.62188 | 3980 ft | 243 kts | 261° |
| 2026-05-05 14:46 | 38.14247 | -0.64321 | 3981 ft | 243 kts | 261° |
| 2026-05-05 14:46 | 38.14038 | -0.66448 | 3979 ft | 243 kts | 261° |
| 2026-05-05 14:46 | 38.13828 | -0.68592 | 3973 ft | 244 kts | 261° |
| 2026-05-05 14:47 | 38.13615 | -0.70759 | 3968 ft | 245 kts | 261° |
| 2026-05-05 14:47 | 38.13409 | -0.72907 | 3974 ft | 245 kts | 261° |
| 2026-05-05 14:47 | 38.13195 | -0.75060 | 3975 ft | 246 kts | 261° |
| 2026-05-05 14:47 | 38.12989 | -0.77212 | 3976 ft | 243 kts | 266° |
| 2026-05-05 14:48 | 38.13291 | -0.79266 | 3945 ft | 232 kts | 297° |
| 2026-05-05 14:48 | 38.14325 | -0.80833 | 3966 ft | 232 kts | 319° |
| 2026-05-05 14:48 | 38.15696 | -0.81934 | 3972 ft | 233 kts | 334° |
| 2026-05-05 14:48 | 38.17204 | -0.82702 | 3981 ft | 233 kts | 340° |
| 2026-05-05 14:49 | 38.18734 | -0.83366 | 3979 ft | 233 kts | 341° |
| 2026-05-05 14:49 | 38.20271 | -0.84015 | 3973 ft | 233 kts | 341° |
| 2026-05-05 14:49 | 38.21854 | -0.84566 | 3973 ft | 234 kts | 348° |
| 2026-05-05 14:49 | 38.23442 | -0.84934 | 3971 ft | 233 kts | 351° |
| 2026-05-05 14:50 | 38.25065 | -0.85265 | 3817 ft | 234 kts | 351° |
| 2026-05-05 14:50 | 38.26662 | -0.85553 | 3578 ft | 232 kts | 358° |
| 2026-05-05 14:50 | 38.28248 | -0.85230 | 3331 ft | 231 kts | 27° |
| 2026-05-05 14:50 | 38.29527 | -0.84031 | 3090 ft | 229 kts | 47° |
| 2026-05-05 14:51 | 38.30611 | -0.82559 | 2988 ft | 228 kts | 50° |
| 2026-05-05 14:51 | 38.31454 | -0.80867 | 2970 ft | 227 kts | 77° |
| 2026-05-05 14:51 | 38.31528 | -0.78895 | 2983 ft | 225 kts | 99° |
| 2026-05-05 14:51 | 38.31056 | -0.77038 | 2970 ft | 220 kts | 128° |
| 2026-05-05 14:52 | 38.29874 | -0.75834 | 2973 ft | 216 kts | 161° |
| 2026-05-05 14:52 | 38.28408 | -0.75625 | 2971 ft | 214 kts | 191° |
| 2026-05-05 14:52 | 38.26988 | -0.76136 | 2973 ft | 214 kts | 199° |
| 2026-05-05 14:52 | 38.25665 | -0.76989 | 2958 ft | 216 kts | 222° |
| 2026-05-05 14:53 | 38.24862 | -0.78587 | 2959 ft | 220 kts | 254° |
| 2026-05-05 14:53 | 38.24785 | -0.80563 | 2972 ft | 223 kts | 272° |
| 2026-05-05 14:53 | 38.25047 | -0.82505 | 2957 ft | 226 kts | 291° |
| 2026-05-05 14:53 | 38.26008 | -0.84088 | 2966 ft | 230 kts | 325° |
| 2026-05-05 14:54 | 38.27480 | -0.84764 | 2961 ft | 220 kts | 358° |
| 2026-05-05 14:54 | 38.28906 | -0.84402 | 2937 ft | 203 kts | 34° |
| 2026-05-05 14:54 | 38.29891 | -0.83216 | 2967 ft | 195 kts | 56° |
| 2026-05-05 14:54 | 38.30662 | -0.81783 | 3030 ft | 198 kts | 60° |
| 2026-05-05 14:55 | 38.31324 | -0.80215 | 3035 ft | 197 kts | 77° |
| 2026-05-05 14:55 | 38.31394 | -0.78566 | 2996 ft | 174 kts | 98° |
| 2026-05-05 14:55 | 38.31240 | -0.77151 | 2965 ft | 152 kts | 103° |
| 2026-05-05 14:55 | 38.31053 | -0.75845 | 2892 ft | 151 kts | 104° |
| 2026-05-05 14:56 | 38.30856 | -0.74529 | 2696 ft | 149 kts | 104° |
| 2026-05-05 14:56 | 38.30668 | -0.73248 | 2506 ft | 147 kts | 104° |
| 2026-05-05 14:56 | 38.30486 | -0.71974 | 2318 ft | 146 kts | 104° |
| 2026-05-05 14:56 | 38.30306 | -0.70703 | 2136 ft | 145 kts | 104° |
| 2026-05-05 14:57 | 38.30129 | -0.69449 | 1950 ft | 144 kts | 103° |
| 2026-05-05 14:57 | 38.29953 | -0.68195 | 1767 ft | 144 kts | 103° |
| 2026-05-05 14:57 | 38.29778 | -0.66945 | 1581 ft | 144 kts | 104° |
| 2026-05-05 14:57 | 38.29583 | -0.65682 | 1386 ft | 143 kts | 106° |
| 2026-05-05 14:58 | 38.29383 | -0.64441 | 1184 ft | 143 kts | 104° |
| 2026-05-05 14:58 | 38.29230 | -0.63197 | 1041 ft | 143 kts | 103° |
| 2026-05-05 14:58 | 38.29072 | -0.61955 | 863 ft | 143 kts | 103° |
| 2026-05-05 14:58 | 38.28907 | -0.60708 | 633 ft | 142 kts | 104° |
| 2026-05-05 14:59 | 38.28724 | -0.59469 | 467 ft | 143 kts | 104° |
| 2026-05-05 14:59 | 38.28551 | -0.58207 | 270 ft | 146 kts | 104° |
| 2026-05-05 14:59 | 38.28367 | -0.56926 | 145 ft | 142 kts | 103° |
| 2026-05-05 14:59 | 38.28218 | -0.55902 | 95 ft | 76 kts | 100° |
| 2026-05-05 15:00 | 38.28174 | -0.55537 | 92 ft | 28 kts | 98° |
| 2026-05-05 15:00 | 38.28152 | -0.55363 | 89 ft | 30 kts | 99° |
| 2026-05-05 15:00 | 38.28125 | -0.54989 | 79 ft | 33 kts | 80° |
| 2026-05-05 15:00 | 38.28184 | -0.54749 | 64 ft | 17 kts | 69° |
| 2026-05-05 15:01 | 38.28243 | -0.54732 | 62 ft | 10 kts | 295° |
| 2026-05-05 15:01 | 38.28256 | -0.54819 | 65 ft | 9 kts | 278° |
| 2026-05-05 15:01 | 38.28265 | -0.54891 | 69 ft | 7 kts | 278° |
| 2026-05-05 15:01 | 38.28270 | -0.54940 | 72 ft | 4 kts | 277° |
| 2026-05-05 15:02 | 38.28274 | -0.54967 | 73 ft | 3 kts | 279° |
| 2026-05-05 15:02 | 38.28281 | -0.55005 | 75 ft | 6 kts | 283° |
| 2026-05-05 15:02 | 38.28292 | -0.55072 | 78 ft | 9 kts | 279° |
| 2026-05-05 15:02 | 38.28303 | -0.55160 | 82 ft | 10 kts | 279° |
| 2026-05-05 15:03 | 38.28347 | -0.55207 | 84 ft | 11 kts | 16° |
| 2026-05-05 15:03 | 38.28415 | -0.55158 | 80 ft | 12 kts | 348° |
| 2026-05-05 15:03 | 38.28444 | -0.55223 | 83 ft | 7 kts | 288° |
| 2026-05-05 15:03 | 38.28476 | -0.55241 | 85 ft | 6 kts | 359° |
| 2026-05-05 15:04 | 38.28516 | -0.55234 | 85 ft | 2 kts | 10° |
| 2026-05-05 15:04 | 38.28523 | -0.55232 | 85 ft | 0 kts | 10° |